Time;durP1;ratioP1;P1;durP2;ratioP2;P2;SDS_P1;SDS_P2;PMS_P1;PMS_P2;Temp;Humidity;BMP_temperature;BMP_pressure;BME280_temperature;BME280_humidity;BME280_pressure;Samples;Min_cycle;Max_cycle;Signal;HPM_P1;HPM_P2
2021/06/21 00:00:35;;;;;;;6.03;1.53;;;;;;;;;;5051946;28;20421;-73
2021/06/21 00:03:01;;;;;;;4.73;1.57;;;;;;;;;;5054643;28;20927;-73
2021/06/21 00:05:27;;;;;;;3.33;1.10;;;;;;;;;;5055647;28;20429;-73
2021/06/21 00:10:57;;;;;;;6.17;1.60;;;;;;;;;;5055489;28;20979;-72
2021/06/21 00:13:23;;;;;;;2.80;1.10;;;;;;;;;;5055368;28;20427;-74
2021/06/21 00:15:50;;;;;;;3.50;1.30;;;;;;;;;;5055547;28;20430;-73
2021/06/21 00:18:16;;;;;;;5.63;1.63;;;;;;;;;;5055357;28;20897;-73
2021/06/21 00:20:42;;;;;;;9.90;2.40;;;;;;;;;;5055641;28;20429;-74
2021/06/21 00:26:11;;;;;;;4.00;1.63;;;;;;;;;;5055068;28;20421;-74
2021/06/21 00:28:37;;;;;;;3.07;1.60;;;;;;;;;;5055336;28;20480;-72
2021/06/21 00:31:03;;;;;;;4.40;1.50;;;;;;;;;;5055091;28;20454;-74
2021/06/21 00:33:29;;;;;;;8.80;2.40;;;;;;;;;;5055088;28;20483;-75
2021/06/21 00:35:55;;;;;;;3.30;1.60;;;;;;;;;;5055129;28;20885;-74
2021/06/21 00:38:21;;;;;;;3.83;1.00;;;;;;;;;;5055068;28;20472;-73
2021/06/21 00:40:47;;;;;;;5.70;1.50;;;;;;;;;;5055041;28;20784;-74
2021/06/21 00:43:13;;;;;;;4.10;1.40;;;;;;;;;;5055009;28;20720;-73
2021/06/21 00:45:39;;;;;;;4.83;1.60;;;;;;;;;;5055011;28;20423;-74
2021/06/21 00:48:06;;;;;;;6.03;1.80;;;;;;;;;;5054798;28;20550;-73
2021/06/21 00:50:32;;;;;;;3.00;1.37;;;;;;;;;;5054723;28;20455;-73
2021/06/21 00:56:01;;;;;;;8.47;2.50;;;;;;;;;;5054700;28;20438;-74
2021/06/21 00:58:28;;;;;;;5.40;1.90;;;;;;;;;;5054739;28;20411;-74
2021/06/21 01:00:53;;;;;;;3.20;1.83;;;;;;;;;;5054726;28;20418;-75
2021/06/21 01:03:19;;;;;;;4.40;1.63;;;;;;;;;;5054739;28;20407;-75
2021/06/21 01:05:46;;;;;;;8.60;2.70;;;;;;;;;;5054634;28;20557;-74
2021/06/21 01:11:15;;;;;;;5.07;1.50;;;;;;;;;;5054353;28;20624;-74
2021/06/21 01:14:00;;;;;;;4.50;1.57;;;;;;;;;;5053416;28;20833;-73
2021/06/21 01:16:29;;;;;;;6.63;2.10;;;;;;;;;;5036478;28;20530;-73
2021/06/21 01:19:15;;;;;;;5.67;2.03;;;;;;;;;;5054266;28;20407;-74
2021/06/21 01:22:02;;;;;;;4.93;1.47;;;;;;;;;;5023362;28;20528;-74
2021/06/21 01:24:47;;;;;;;2.53;1.57;;;;;;;;;;5054159;28;20427;-74
2021/06/21 01:27:31;;;;;;;7.33;2.70;;;;;;;;;;5054157;28;20403;-74
2021/06/21 01:30:11;;;;;;;10.30;1.77;;;;;;;;;;5054241;28;20422;-74
2021/06/21 01:32:51;;;;;;;9.63;1.67;;;;;;;;;;5054156;28;20473;-73
2021/06/21 01:35:31;;;;;;;4.53;1.37;;;;;;;;;;5053895;28;20900;-73
2021/06/21 01:37:59;;;;;;;3.53;1.27;;;;;;;;;;5054198;28;20912;-74
2021/06/21 01:40:27;;;;;;;7.50;1.70;;;;;;;;;;5057647;28;20935;-73
2021/06/21 01:42:55;;;;;;;11.17;1.83;;;;;;;;;;5051434;28;20423;-73
2021/06/21 01:45:21;;;;;;;8.67;2.17;;;;;;;;;;5053904;28;20414;-72
2021/06/21 01:47:48;;;;;;;4.00;1.70;;;;;;;;;;5053914;28;20780;-74
2021/06/21 01:50:17;;;;;;;6.70;1.80;;;;;;;;;;5053816;28;20540;-74
2021/06/21 01:52:44;;;;;;;9.30;2.57;;;;;;;;;;5053563;28;20422;-74
2021/06/21 01:55:12;;;;;;;9.77;1.70;;;;;;;;;;5035787;28;20935;-74
2021/06/21 01:57:38;;;;;;;10.63;2.60;;;;;;;;;;5053780;28;20498;-74
2021/06/21 02:00:05;;;;;;;3.73;1.67;;;;;;;;;;5053654;28;20515;-75
2021/06/21 02:02:32;;;;;;;3.63;1.53;;;;;;;;;;5053707;28;20415;-73
2021/06/21 02:04:58;;;;;;;5.53;1.67;;;;;;;;;;5053558;28;20431;-73
2021/06/21 02:07:24;;;;;;;5.40;1.77;;;;;;;;;;5053750;28;20438;-73
2021/06/21 02:09:52;;;;;;;7.37;1.70;;;;;;;;;;5053566;28;20500;-73
2021/06/21 02:12:20;;;;;;;10.60;2.10;;;;;;;;;;5053104;28;20474;-75
2021/06/21 02:14:50;;;;;;;6.40;2.30;;;;;;;;;;5053216;28;21020;-73
2021/06/21 02:17:20;;;;;;;6.40;1.50;;;;;;;;;;5053499;28;20423;-74
2021/06/21 02:19:46;;;;;;;5.23;2.03;;;;;;;;;;5052980;28;20412;-73
2021/06/21 02:22:13;;;;;;;8.27;2.53;;;;;;;;;;5052904;28;20414;-72
2021/06/21 02:24:40;;;;;;;6.80;2.70;;;;;;;;;;5052961;28;20464;-74
2021/06/21 02:27:07;;;;;;;4.67;2.20;;;;;;;;;;5052947;28;20419;-73
2021/06/21 02:29:33;;;;;;;5.00;1.90;;;;;;;;;;5053244;28;20419;-74
2021/06/21 02:31:59;;;;;;;7.90;1.70;;;;;;;;;;5052883;28;20467;-73
2021/06/21 02:34:25;;;;;;;8.10;2.00;;;;;;;;;;5052826;28;20414;-73
2021/06/21 02:36:51;;;;;;;6.73;1.80;;;;;;;;;;5053114;28;20407;-74
2021/06/21 02:39:18;;;;;;;5.53;1.83;;;;;;;;;;5052708;28;20494;-74
2021/06/21 02:41:44;;;;;;;5.37;2.17;;;;;;;;;;5052597;28;20407;-72
2021/06/21 02:44:10;;;;;;;6.13;2.50;;;;;;;;;;5052613;28;20463;-75
2021/06/21 02:46:36;;;;;;;5.97;2.13;;;;;;;;;;5052635;28;20586;-73
2021/06/21 02:49:02;;;;;;;10.93;2.20;;;;;;;;;;5052326;28;20856;-72
2021/06/21 02:51:34;;;;;;;4.90;1.40;;;;;;;;;;5034465;28;20490;-73
2021/06/21 02:54:09;;;;;;;5.23;2.40;;;;;;;;;;5052443;28;20411;-74
2021/06/21 02:56:39;;;;;;;5.60;2.27;;;;;;;;;;5052707;28;20426;-73
2021/06/21 02:59:07;;;;;;;7.50;2.30;;;;;;;;;;5034385;28;20419;-71
2021/06/21 03:01:34;;;;;;;8.90;1.77;;;;;;;;;;5052425;28;20446;-74
2021/06/21 03:04:00;;;;;;;10.13;2.17;;;;;;;;;;5052178;28;20415;-73
2021/06/21 03:06:28;;;;;;;5.63;1.93;;;;;;;;;;5052167;28;20518;-74
2021/06/21 03:08:55;;;;;;;3.57;2.07;;;;;;;;;;5052200;28;20950;-74
2021/06/21 03:11:22;;;;;;;11.90;2.40;;;;;;;;;;5052022;28;20512;-73
2021/06/21 03:13:49;;;;;;;3.67;2.13;;;;;;;;;;5052082;28;20427;-73
2021/06/21 03:16:16;;;;;;;6.50;2.27;;;;;;;;;;5052369;28;20443;-73
2021/06/21 03:18:42;;;;;;;8.17;2.33;;;;;;;;;;5051422;28;20443;-74
2021/06/21 03:21:09;;;;;;;8.40;2.20;;;;;;;;;;5052018;28;20427;-72
2021/06/21 03:26:38;;;;;;;4.43;2.20;;;;;;;;;;5052051;28;20525;-71
2021/06/21 03:29:12;;;;;;;7.00;1.97;;;;;;;;;;5051984;28;20452;-74
2021/06/21 03:31:38;;;;;;;3.80;1.50;;;;;;;;;;5052172;28;20519;-73
2021/06/21 03:34:04;;;;;;;4.30;2.40;;;;;;;;;;5051781;28;20411;-72
2021/06/21 03:36:30;;;;;;;6.83;2.07;;;;;;;;;;5051186;28;20517;-73
2021/06/21 03:42:02;;;;;;;7.90;2.17;;;;;;;;;;5051918;28;20498;-72
2021/06/21 03:44:28;;;;;;;4.63;1.60;;;;;;;;;;5051678;28;20407;-73
2021/06/21 03:46:54;;;;;;;4.80;2.13;;;;;;;;;;5052080;28;20457;-73
2021/06/21 03:49:20;;;;;;;4.30;2.10;;;;;;;;;;5053651;28;20499;-73
2021/06/21 03:51:46;;;;;;;7.77;2.83;;;;;;;;;;5052953;28;20475;-73
2021/06/21 03:54:12;;;;;;;2.73;1.33;;;;;;;;;;5033726;28;20442;-73
2021/06/21 03:56:38;;;;;;;5.93;1.90;;;;;;;;;;5051607;28;20751;-73
2021/06/21 03:59:04;;;;;;;7.83;1.67;;;;;;;;;;5051644;28;20407;-71
2021/06/21 04:01:30;;;;;;;4.20;1.23;;;;;;;;;;5051470;28;20419;-73
2021/06/21 04:03:59;;;;;;;6.80;2.30;;;;;;;;;;5051463;28;20411;-73
2021/06/21 04:06:25;;;;;;;5.33;1.47;;;;;;;;;;5051551;28;20419;-74
2021/06/21 04:11:54;;;;;;;7.70;1.60;;;;;;;;;;5051479;28;20841;-73
2021/06/21 04:14:20;;;;;;;3.83;1.60;;;;;;;;;;5051556;28;20423;-73
2021/06/21 04:16:46;;;;;;;7.07;2.80;;;;;;;;;;5051598;28;20435;-74
2021/06/21 04:19:13;;;;;;;5.70;1.47;;;;;;;;;;5051341;28;20415;-73
2021/06/21 04:21:39;;;;;;;5.70;2.23;;;;;;;;;;5033963;28;20842;-73
2021/06/21 04:27:09;;;;;;;7.47;2.20;;;;;;;;;;5051055;28;20425;-72
2021/06/21 04:29:35;;;;;;;4.17;1.70;;;;;;;;;;5051357;28;20516;-73
2021/06/21 04:32:01;;;;;;;14.73;1.93;;;;;;;;;;5051509;28;20540;-74
2021/06/21 04:34:27;;;;;;;4.03;1.73;;;;;;;;;;5051374;28;20411;-72
2021/06/21 04:42:41;;;;;;;13.23;2.17;;;;;;;;;;5051536;28;20491;-74
2021/06/21 04:45:08;;;;;;;4.83;1.70;;;;;;;;;;5051640;28;20748;-72
2021/06/21 04:47:34;;;;;;;6.43;2.40;;;;;;;;;;5051467;28;20418;-73
2021/06/21 04:50:05;;;;;;;4.93;2.07;;;;;;;;;;5053783;28;20474;-74
2021/06/21 04:52:35;;;;;;;6.60;1.90;;;;;;;;;;5055100;28;20479;-74
2021/06/21 04:55:02;;;;;;;4.43;1.60;;;;;;;;;;5036973;28;20454;-72
2021/06/21 04:57:29;;;;;;;4.67;1.93;;;;;;;;;;5054996;28;20657;-73
2021/06/21 04:59:55;;;;;;;4.67;2.10;;;;;;;;;;5054886;28;20415;-75
2021/06/21 05:02:21;;;;;;;4.80;1.40;;;;;;;;;;5034021;28;20463;-72
2021/06/21 05:04:47;;;;;;;7.93;2.30;;;;;;;;;;5054490;28;20423;-73
2021/06/21 05:07:13;;;;;;;5.50;1.50;;;;;;;;;;5054766;28;20488;-73
2021/06/21 05:09:39;;;;;;;8.03;1.83;;;;;;;;;;5054640;28;20769;-73
2021/06/21 05:12:05;;;;;;;4.93;1.73;;;;;;;;;;5054460;28;20470;-74
2021/06/21 05:14:31;;;;;;;5.03;2.00;;;;;;;;;;5054697;28;20506;-75
2021/06/21 05:16:57;;;;;;;4.60;1.93;;;;;;;;;;5036351;28;20439;-74
2021/06/21 05:19:23;;;;;;;4.93;1.73;;;;;;;;;;5054557;28;20419;-73
2021/06/21 05:21:49;;;;;;;4.60;1.40;;;;;;;;;;5054468;28;20430;-73
2021/06/21 05:27:19;;;;;;;4.33;1.90;;;;;;;;;;5054168;28;20896;-73
2021/06/21 05:29:44;;;;;;;5.07;1.60;;;;;;;;;;5054278;28;20510;-74
2021/06/21 05:32:11;;;;;;;3.83;1.63;;;;;;;;;;5054195;28;20474;-72
2021/06/21 05:34:37;;;;;;;6.60;2.33;;;;;;;;;;5053840;28;20414;-73
2021/06/21 05:37:03;;;;;;;4.80;1.67;;;;;;;;;;5054240;28;20812;-71
2021/06/21 05:42:32;;;;;;;5.90;1.87;;;;;;;;;;5054010;28;20468;-72
2021/06/21 05:45:02;;;;;;;7.37;1.90;;;;;;;;;;5053877;28;20407;-73
2021/06/21 05:47:27;;;;;;;5.73;1.37;;;;;;;;;;5053984;28;20678;-74
2021/06/21 05:49:53;;;;;;;10.30;1.50;;;;;;;;;;5053671;28;20486;-72
2021/06/21 05:58:08;;;;;;;8.50;1.73;;;;;;;;;;5054579;28;20464;-73
2021/06/21 06:00:34;;;;;;;4.17;1.80;;;;;;;;;;5039779;28;20550;-74
2021/06/21 06:03:00;;;;;;;6.90;2.30;;;;;;;;;;5053966;28;20415;-73
2021/06/21 06:05:26;;;;;;;8.23;1.90;;;;;;;;;;5054017;28;20430;-73
2021/06/21 06:07:52;;;;;;;10.30;1.70;;;;;;;;;;5053507;28;20419;-72
2021/06/21 06:10:19;;;;;;;6.47;2.13;;;;;;;;;;5053343;28;20639;-72
2021/06/21 06:12:45;;;;;;;6.60;1.70;;;;;;;;;;5053760;28;20419;-71
2021/06/21 06:15:11;;;;;;;6.97;2.23;;;;;;;;;;5053233;28;20415;-72
2021/06/21 06:17:38;;;;;;;2.73;1.70;;;;;;;;;;5053282;28;20772;-72
2021/06/21 06:20:05;;;;;;;7.23;1.30;;;;;;;;;;5052940;28;20487;-71
2021/06/21 06:22:31;;;;;;;3.90;1.43;;;;;;;;;;5052573;28;20415;-73
2021/06/21 06:24:57;;;;;;;2.93;1.43;;;;;;;;;;5052801;28;20801;-73
2021/06/21 06:27:23;;;;;;;3.07;1.53;;;;;;;;;;5052830;28;20799;-72
2021/06/21 06:29:49;;;;;;;3.80;1.50;;;;;;;;;;5034682;28;20477;-72
2021/06/21 06:32:15;;;;;;;2.97;1.73;;;;;;;;;;5052984;28;20506;-73
2021/06/21 06:34:41;;;;;;;7.20;1.50;;;;;;;;;;5052566;28;20408;-71
2021/06/21 06:37:07;;;;;;;6.10;1.60;;;;;;;;;;5052647;28;20411;-73
2021/06/21 06:42:36;;;;;;;7.37;1.60;;;;;;;;;;5052423;28;20405;-73
2021/06/21 06:45:03;;;;;;;7.23;1.93;;;;;;;;;;5034371;28;20522;-71
2021/06/21 06:47:31;;;;;;;3.20;1.20;;;;;;;;;;5052765;28;20758;-71
2021/06/21 06:49:57;;;;;;;3.73;1.53;;;;;;;;;;5052074;28;20552;-72
2021/06/21 06:52:24;;;;;;;3.77;2.27;;;;;;;;;;5052222;28;20470;-74
2021/06/21 06:57:54;;;;;;;4.73;1.33;;;;;;;;;;5051141;28;20410;-75
2021/06/21 07:00:21;;;;;;;3.20;1.20;;;;;;;;;;5050394;28;20422;-74
2021/06/21 07:02:47;;;;;;;4.70;1.40;;;;;;;;;;5033178;28;20462;-73
2021/06/21 07:05:14;;;;;;;2.40;1.47;;;;;;;;;;5051484;28;20893;-74
2021/06/21 07:13:28;;;;;;;4.13;1.83;;;;;;;;;;5050454;28;20426;-73
2021/06/21 07:15:54;;;;;;;6.60;1.80;;;;;;;;;;5050406;28;20510;-71
2021/06/21 07:18:20;;;;;;;2.07;1.13;;;;;;;;;;5049140;28;20415;-73
2021/06/21 07:20:46;;;;;;;2.63;1.03;;;;;;;;;;5024366;28;20429;-72
2021/06/21 07:23:12;;;;;;;3.00;1.20;;;;;;;;;;5030984;28;20423;-71
2021/06/21 07:25:39;;;;;;;4.53;1.63;;;;;;;;;;5048714;28;21151;-72
2021/06/21 07:28:05;;;;;;;2.80;1.27;;;;;;;;;;5048551;28;20419;-73
2021/06/21 07:30:31;;;;;;;2.83;1.00;;;;;;;;;;5030774;28;20442;-72
2021/06/21 07:32:57;;;;;;;2.80;1.40;;;;;;;;;;5048691;28;20425;-73
2021/06/21 07:35:24;;;;;;;10.70;1.40;;;;;;;;;;5032524;28;20789;-72
2021/06/21 07:37:50;;;;;;;5.97;2.40;;;;;;;;;;5050101;28;20869;-71
2021/06/21 07:43:20;;;;;;;3.90;2.33;;;;;;;;;;5050279;28;20425;-73
2021/06/21 07:45:47;;;;;;;4.77;1.40;;;;;;;;;;5032427;28;20975;-72
2021/06/21 07:48:13;;;;;;;3.17;1.57;;;;;;;;;;5048576;28;20479;-71
2021/06/21 07:50:39;;;;;;;5.83;1.20;;;;;;;;;;5048818;28;20415;-72
2021/06/21 07:53:06;;;;;;;5.63;2.10;;;;;;;;;;5049395;28;20458;-72
2021/06/21 07:55:33;;;;;;;9.70;1.70;;;;;;;;;;5031336;28;20443;-73
2021/06/21 07:58:01;;;;;;;2.77;1.63;;;;;;;;;;5049489;28;20616;-72
2021/06/21 08:00:27;;;;;;;3.60;1.63;;;;;;;;;;5049796;28;20779;-73
2021/06/21 08:02:54;;;;;;;2.20;1.10;;;;;;;;;;5048982;28;20434;-71
2021/06/21 08:05:20;;;;;;;4.60;1.93;;;;;;;;;;5050362;28;20418;-71
2021/06/21 08:07:46;;;;;;;3.30;1.60;;;;;;;;;;5032089;28;20494;-72
2021/06/21 08:13:16;;;;;;;5.70;1.53;;;;;;;;;;5050411;28;20772;-72
2021/06/21 08:15:42;;;;;;;3.17;1.27;;;;;;;;;;5052513;28;20762;-71
2021/06/21 08:18:10;;;;;;;9.40;1.50;;;;;;;;;;5050213;28;20410;-72
2021/06/21 08:20:36;;;;;;;4.60;1.80;;;;;;;;;;5050193;28;20423;-71
2021/06/21 08:23:02;;;;;;;5.83;1.90;;;;;;;;;;5050417;28;20422;-71
2021/06/21 08:28:32;;;;;;;3.37;1.53;;;;;;;;;;5052379;28;20521;-73
2021/06/21 08:30:58;;;;;;;4.60;1.73;;;;;;;;;;5048836;28;20468;-75
2021/06/21 08:33:24;;;;;;;4.60;1.30;;;;;;;;;;5010790;28;20883;-72
2021/06/21 08:35:50;;;;;;;6.43;2.20;;;;;;;;;;5011067;28;20428;-72
2021/06/21 08:38:16;;;;;;;3.57;1.43;;;;;;;;;;4978664;28;20473;-72
2021/06/21 08:43:47;;;;;;;3.40;1.50;;;;;;;;;;5010248;28;20788;-72
2021/06/21 08:46:15;;;;;;;2.37;1.23;;;;;;;;;;5010310;28;20417;-73
2021/06/21 08:48:42;;;;;;;1.67;1.57;;;;;;;;;;5009861;28;20486;-72
2021/06/21 08:51:08;;;;;;;6.60;2.10;;;;;;;;;;4993802;28;20472;-73
2021/06/21 08:53:34;;;;;;;5.43;1.20;;;;;;;;;;5009913;28;20541;-73
2021/06/21 08:56:00;;;;;;;3.63;1.40;;;;;;;;;;5010347;28;20431;-72
2021/06/21 08:58:26;;;;;;;1.77;1.30;;;;;;;;;;5010195;28;20425;-72
2021/06/21 09:00:52;;;;;;;5.27;1.33;;;;;;;;;;5009944;28;20424;-72
2021/06/21 09:03:18;;;;;;;3.87;1.47;;;;;;;;;;4995400;28;20506;-72
2021/06/21 09:05:44;;;;;;;8.13;1.47;;;;;;;;;;5052213;28;20415;-73
2021/06/21 09:08:10;;;;;;;2.60;1.33;;;;;;;;;;5051907;28;20746;-72
2021/06/21 09:13:40;;;;;;;4.27;1.53;;;;;;;;;;5051521;28;20473;-72
2021/06/21 09:16:06;;;;;;;5.07;1.30;;;;;;;;;;5050634;28;20415;-72
2021/06/21 09:18:38;;;;;;;3.30;1.30;;;;;;;;;;5048452;28;20461;-71
2021/06/21 09:21:19;;;;;;;1.47;0.90;;;;;;;;;;5049653;28;20422;-72
2021/06/21 09:23:45;;;;;;;4.33;1.20;;;;;;;;;;5049185;28;20498;-73
2021/06/21 09:26:20;;;;;;;3.27;1.60;;;;;;;;;;5050691;28;20411;-72
2021/06/21 09:28:46;;;;;;;4.47;1.50;;;;;;;;;;5052035;28;20418;-73
2021/06/21 09:31:12;;;;;;;5.07;1.13;;;;;;;;;;5052166;28;20921;-72
2021/06/21 09:33:38;;;;;;;2.23;1.30;;;;;;;;;;5051840;28;20411;-72
2021/06/21 09:36:05;;;;;;;4.53;1.70;;;;;;;;;;5051600;28;20762;-71
2021/06/21 09:38:31;;;;;;;4.63;1.53;;;;;;;;;;5034047;28;20423;-71
2021/06/21 09:44:00;;;;;;;3.53;1.20;;;;;;;;;;5051783;28;20414;-73
2021/06/21 09:46:26;;;;;;;4.70;1.23;;;;;;;;;;5051809;28;20419;-73
2021/06/21 09:48:53;;;;;;;2.63;1.07;;;;;;;;;;5051484;28;20501;-73
2021/06/21 09:51:33;;;;;;;4.63;1.00;;;;;;;;;;5033943;28;20474;-73
2021/06/21 09:54:01;;;;;;;2.40;1.00;;;;;;;;;;5051991;28;20426;-73
2021/06/21 09:56:31;;;;;;;4.30;1.80;;;;;;;;;;5052303;28;20499;-72
2021/06/21 09:58:57;;;;;;;2.10;1.20;;;;;;;;;;5052288;28;20494;-73
2021/06/21 10:01:28;;;;;;;2.83;1.30;;;;;;;;;;5052504;28;20500;-72
2021/06/21 10:03:54;;;;;;;2.70;1.10;;;;;;;;;;5052029;28;20415;-73
2021/06/21 10:06:20;;;;;;;2.20;1.27;;;;;;;;;;5052114;28;20468;-73
2021/06/21 10:08:50;;;;;;;3.73;1.37;;;;;;;;;;5052021;28;20795;-72
2021/06/21 10:14:21;;;;;;;2.83;1.30;;;;;;;;;;5051969;28;20780;-73
2021/06/21 10:16:48;;;;;;;2.30;2.00;;;;;;;;;;5033946;28;20495;-74
2021/06/21 10:19:15;;;;;;;1.70;1.10;;;;;;;;;;5051908;28;20502;-73
2021/06/21 10:21:46;;;;;;;2.23;1.40;;;;;;;;;;5051769;28;20414;-72
2021/06/21 10:24:12;;;;;;;3.10;1.43;;;;;;;;;;5051621;28;20416;-73
2021/06/21 10:26:39;;;;;;;2.57;1.90;;;;;;;;;;5051557;28;20416;-72
2021/06/21 10:29:05;;;;;;;4.27;1.60;;;;;;;;;;5051818;28;20489;-74
2021/06/21 10:31:32;;;;;;;1.60;1.30;;;;;;;;;;5051721;28;20920;-73
2021/06/21 10:34:02;;;;;;;3.10;1.90;;;;;;;;;;5051588;28;20762;-73
2021/06/21 10:36:40;;;;;;;2.13;1.30;;;;;;;;;;5052058;28;20415;-72
2021/06/21 10:45:19;;;;;;;7.33;1.50;;;;;;;;;;5050352;28;20426;-72
2021/06/21 10:47:50;;;;;;;1.50;1.40;;;;;;;;;;5049828;28;20572;-72
2021/06/21 10:50:20;;;;;;;4.87;1.30;;;;;;;;;;5031935;28;20423;-71
2021/06/21 10:52:47;;;;;;;2.40;1.40;;;;;;;;;;5049987;28;20949;-72
2021/06/21 10:55:23;;;;;;;5.43;1.50;;;;;;;;;;5050217;28;20482;-71
2021/06/21 10:57:56;;;;;;;7.00;2.20;;;;;;;;;;5049432;28;20913;-71
2021/06/21 11:00:23;;;;;;;3.20;1.47;;;;;;;;;;5032698;28;20431;-73
2021/06/21 11:02:49;;;;;;;3.67;1.87;;;;;;;;;;5050782;28;21050;-73
2021/06/21 11:05:33;;;;;;;1.40;1.30;;;;;;;;;;5050341;28;20770;-72
2021/06/21 11:08:13;;;;;;;2.80;1.57;;;;;;;;;;5032339;28;20515;-72
2021/06/21 11:10:39;;;;;;;4.67;1.30;;;;;;;;;;5050348;28;20477;-72
2021/06/21 11:13:23;;;;;;;3.30;1.20;;;;;;;;;;5050521;28;20446;-71
2021/06/21 11:16:08;;;;;;;2.43;1.53;;;;;;;;;;5050567;28;20451;-73
2021/06/21 11:18:34;;;;;;;1.30;1.20;;;;;;;;;;5048877;28;20419;-72
2021/06/21 11:21:12;;;;;;;1.47;1.20;;;;;;;;;;5049631;28;20916;-73
2021/06/21 11:23:39;;;;;;;3.43;1.43;;;;;;;;;;5049839;28;20773;-75
2021/06/21 11:26:05;;;;;;;4.83;1.40;;;;;;;;;;5031658;28;20419;-74
2021/06/21 11:28:35;;;;;;;1.83;1.57;;;;;;;;;;5049620;28;20513;-72
2021/06/21 11:31:21;;;;;;;2.80;1.70;;;;;;;;;;5049524;28;20894;-73
2021/06/21 11:33:54;;;;;;;2.63;1.93;;;;;;;;;;5049644;28;20433;-71
2021/06/21 11:36:39;;;;;;;3.70;1.30;;;;;;;;;;5049730;28;20493;-73
2021/06/21 11:39:21;;;;;;;2.10;1.20;;;;;;;;;;5049488;28;20403;-72
2021/06/21 11:41:56;;;;;;;1.47;1.37;;;;;;;;;;5049845;28;20419;-72
2021/06/21 11:44:40;;;;;;;3.23;1.23;;;;;;;;;;5049985;28;20426;-71
2021/06/21 11:47:15;;;;;;;2.23;1.93;;;;;;;;;;5050200;28;20500;-70
2021/06/21 11:49:44;;;;;;;4.80;1.27;;;;;;;;;;5049621;28;20853;-72
2021/06/21 11:52:10;;;;;;;4.67;1.40;;;;;;;;;;5049963;28;20481;-72
2021/06/21 11:57:40;;;;;;;1.87;1.33;;;;;;;;;;5052056;28;20405;-71
2021/06/21 12:00:06;;;;;;;5.20;1.50;;;;;;;;;;5056382;28;20766;-72
2021/06/21 12:02:32;;;;;;;3.17;1.30;;;;;;;;;;5056649;28;20407;-72
2021/06/21 12:05:06;;;;;;;2.80;1.40;;;;;;;;;;5056684;28;20848;-72
2021/06/21 12:07:35;;;;;;;1.23;1.13;;;;;;;;;;5056743;28;20853;-72
2021/06/21 12:13:04;;;;;;;4.93;1.70;;;;;;;;;;5056243;28;20507;-70
2021/06/21 12:15:32;;;;;;;2.83;1.23;;;;;;;;;;5057254;28;20415;-72
2021/06/21 12:17:58;;;;;;;2.90;1.27;;;;;;;;;;5038842;28;20947;-72
2021/06/21 12:20:25;;;;;;;6.67;1.37;;;;;;;;;;5038928;28;20514;-72
2021/06/21 12:22:54;;;;;;;2.13;1.20;;;;;;;;;;5056566;28;20423;-72
2021/06/21 12:28:27;;;;;;;1.93;1.20;;;;;;;;;;5056833;28;20823;-72
2021/06/21 12:30:57;;;;;;;1.37;1.27;;;;;;;;;;5056926;28;21039;-74
2021/06/21 12:33:26;;;;;;;2.17;1.37;;;;;;;;;;5056791;28;20411;-74
2021/06/21 12:36:11;;;;;;;3.23;1.60;;;;;;;;;;5056795;28;20455;-73
2021/06/21 12:38:38;;;;;;;4.90;1.27;;;;;;;;;;5056829;28;20410;-74
2021/06/21 12:44:09;;;;;;;1.30;0.87;;;;;;;;;;5056936;28;20751;-74
2021/06/21 12:46:39;;;;;;;3.13;1.17;;;;;;;;;;5056659;28;20747;-76
2021/06/21 12:49:08;;;;;;;1.33;1.17;;;;;;;;;;5056184;28;20557;-74
2021/06/21 12:51:35;;;;;;;3.37;1.10;;;;;;;;;;5056430;28;20474;-73
2021/06/21 12:54:01;;;;;;;4.50;1.30;;;;;;;;;;5056390;28;20533;-74
2021/06/21 12:59:38;;;;;;;3.67;1.53;;;;;;;;;;5055366;28;20450;-74
2021/06/21 13:02:05;;;;;;;4.00;1.50;;;;;;;;;;5056637;28;20430;-75
2021/06/21 13:04:32;;;;;;;1.00;0.97;;;;;;;;;;5056424;28;20418;-76
2021/06/21 13:07:08;;;;;;;1.57;1.20;;;;;;;;;;5056796;28;20516;-75
2021/06/21 13:09:52;;;;;;;2.13;1.10;;;;;;;;;;5035968;28;20924;-74
2021/06/21 13:15:23;;;;;;;2.27;1.20;;;;;;;;;;5054320;28;20430;-75
2021/06/21 13:17:51;;;;;;;1.63;1.30;;;;;;;;;;5052774;28;20414;-76
2021/06/21 13:20:18;;;;;;;1.70;1.27;;;;;;;;;;5052920;28;20490;-72
2021/06/21 13:22:51;;;;;;;2.20;1.20;;;;;;;;;;5035150;28;20792;-72
2021/06/21 13:25:31;;;;;;;4.70;1.63;;;;;;;;;;5051998;28;20446;-74
2021/06/21 13:27:59;;;;;;;4.03;1.20;;;;;;;;;;5052219;28;20415;-75
2021/06/21 13:30:25;;;;;;;3.60;1.70;;;;;;;;;;5052101;28;20517;-73
2021/06/21 13:32:51;;;;;;;6.00;1.50;;;;;;;;;;5050848;28;20935;-74
2021/06/21 13:35:18;;;;;;;1.77;1.17;;;;;;;;;;5031027;28;20423;-73
2021/06/21 13:37:45;;;;;;;4.67;1.40;;;;;;;;;;5051499;28;20419;-75
2021/06/21 13:40:14;;;;;;;3.13;1.80;;;;;;;;;;5051940;28;20437;-75
2021/06/21 13:45:43;;;;;;;5.57;1.80;;;;;;;;;;5052654;28;20458;-74
2021/06/21 13:48:11;;;;;;;3.80;1.60;;;;;;;;;;5030953;28;20463;-73
2021/06/21 13:50:37;;;;;;;1.90;1.80;;;;;;;;;;5032347;28;20887;-74
2021/06/21 13:53:04;;;;;;;3.20;1.70;;;;;;;;;;5032381;28;20416;-75
2021/06/21 13:55:44;;;;;;;4.33;1.30;;;;;;;;;;5032362;28;20610;-73
2021/06/21 13:58:10;;;;;;;2.70;1.50;;;;;;;;;;5032266;28;20412;-73
2021/06/21 14:00:37;;;;;;;2.40;1.23;;;;;;;;;;5032412;28;20420;-75
2021/06/21 14:03:21;;;;;;;4.83;1.40;;;;;;;;;;5031589;28;20416;-75
2021/06/21 14:05:47;;;;;;;3.93;2.03;;;;;;;;;;5032421;28;20809;-73
2021/06/21 14:08:16;;;;;;;3.70;1.33;;;;;;;;;;5031032;28;20446;-74
2021/06/21 14:10:42;;;;;;;1.53;1.43;;;;;;;;;;5031739;28;20844;-75
2021/06/21 14:13:08;;;;;;;1.63;1.53;;;;;;;;;;5032112;28;20431;-72
2021/06/21 14:15:34;;;;;;;2.00;1.53;;;;;;;;;;5032253;28;20432;-73
2021/06/21 14:18:00;;;;;;;1.90;1.30;;;;;;;;;;5030643;28;20792;-75
2021/06/21 14:20:27;;;;;;;3.20;1.63;;;;;;;;;;5031815;28;20420;-75
2021/06/21 14:22:53;;;;;;;1.67;1.53;;;;;;;;;;5031894;28;20467;-73
2021/06/21 14:25:20;;;;;;;3.77;1.80;;;;;;;;;;5030404;28;20451;-72
2021/06/21 14:30:50;;;;;;;6.23;2.40;;;;;;;;;;5033699;28;20439;-73
2021/06/21 14:33:16;;;;;;;5.63;2.30;;;;;;;;;;5037851;28;20505;-73
2021/06/21 14:35:42;;;;;;;1.83;1.40;;;;;;;;;;5032182;28;20485;-73
2021/06/21 14:38:08;;;;;;;3.00;1.90;;;;;;;;;;5032022;28;20431;-75
2021/06/21 14:46:23;;;;;;;3.37;1.57;;;;;;;;;;5031235;28;20534;-74
2021/06/21 14:48:51;;;;;;;6.90;2.00;;;;;;;;;;5040738;28;20470;-73
2021/06/21 14:51:21;;;;;;;2.90;1.83;;;;;;;;;;5051218;28;20466;-74
2021/06/21 14:53:47;;;;;;;3.90;1.40;;;;;;;;;;5050996;28;20431;-73
2021/06/21 14:56:16;;;;;;;3.23;2.43;;;;;;;;;;5033053;28;20897;-71
2021/06/21 14:58:42;;;;;;;3.17;1.40;;;;;;;;;;5051133;28;20423;-72
2021/06/21 15:01:08;;;;;;;4.20;1.60;;;;;;;;;;5051199;28;20421;-73
2021/06/21 15:03:34;;;;;;;4.30;1.83;;;;;;;;;;5050593;28;20982;-75
2021/06/21 15:06:06;;;;;;;3.40;2.33;;;;;;;;;;5033040;28;20438;-72
2021/06/21 15:08:32;;;;;;;1.90;1.30;;;;;;;;;;5051104;28;20415;-75
2021/06/21 15:10:58;;;;;;;4.07;1.70;;;;;;;;;;5050798;28;20477;-75
2021/06/21 15:13:24;;;;;;;4.87;1.57;;;;;;;;;;5051160;28;20434;-75
2021/06/21 15:15:50;;;;;;;5.20;1.70;;;;;;;;;;5050936;28;20461;-74
2021/06/21 15:18:16;;;;;;;2.67;1.60;;;;;;;;;;5050854;28;20431;-75
2021/06/21 15:20:42;;;;;;;1.70;1.13;;;;;;;;;;5050772;28;20411;-73
2021/06/21 15:23:08;;;;;;;2.07;1.40;;;;;;;;;;5050863;28;20956;-74
2021/06/21 15:25:35;;;;;;;2.70;1.67;;;;;;;;;;5050517;28;20501;-74
2021/06/21 15:31:05;;;;;;;1.60;1.50;;;;;;;;;;5050370;28;20539;-73
2021/06/21 15:33:33;;;;;;;2.00;1.60;;;;;;;;;;5049763;28;20483;-72
2021/06/21 15:35:59;;;;;;;4.10;1.70;;;;;;;;;;5050516;28;20449;-75
2021/06/21 15:38:25;;;;;;;1.67;1.47;;;;;;;;;;5032565;28;20765;-71
2021/06/21 15:40:52;;;;;;;3.80;1.60;;;;;;;;;;5050466;28;20466;-76
2021/06/21 15:46:21;;;;;;;1.50;1.40;;;;;;;;;;5050553;28;20963;-75
2021/06/21 15:48:47;;;;;;;4.13;2.00;;;;;;;;;;5050656;28;20483;-76
2021/06/21 15:51:14;;;;;;;1.60;1.50;;;;;;;;;;5032777;28;20498;-73
2021/06/21 15:53:40;;;;;;;2.53;1.50;;;;;;;;;;5047075;28;20423;-73
2021/06/21 15:56:06;;;;;;;2.17;1.70;;;;;;;;;;5047475;28;20464;-72
2021/06/21 15:58:33;;;;;;;2.77;2.00;;;;;;;;;;5048541;28;20426;-72
2021/06/21 16:00:59;;;;;;;1.70;1.47;;;;;;;;;;5031091;28;20419;-73
2021/06/21 16:03:25;;;;;;;4.10;1.87;;;;;;;;;;5049056;28;20423;-73
2021/06/21 16:05:54;;;;;;;3.07;2.00;;;;;;;;;;5048851;28;20502;-73
2021/06/21 16:08:20;;;;;;;3.60;1.97;;;;;;;;;;5048571;28;20425;-74
2021/06/21 16:10:47;;;;;;;4.43;2.30;;;;;;;;;;5048750;28;20494;-75
2021/06/21 16:16:16;;;;;;;7.00;2.40;;;;;;;;;;5048965;28;20480;-73
2021/06/21 16:18:42;;;;;;;3.50;2.00;;;;;;;;;;5048693;28;20414;-72
2021/06/21 16:21:08;;;;;;;6.20;2.17;;;;;;;;;;5050472;28;20774;-73
2021/06/21 16:23:34;;;;;;;2.30;1.23;;;;;;;;;;5032066;28;20553;-74
2021/06/21 16:26:00;;;;;;;2.27;1.87;;;;;;;;;;5050022;28;20425;-75
2021/06/21 16:31:31;;;;;;;3.97;1.50;;;;;;;;;;5049914;28;21007;-73
2021/06/21 16:33:57;;;;;;;3.50;2.03;;;;;;;;;;5031853;28;20932;-72
2021/06/21 16:36:23;;;;;;;4.43;1.80;;;;;;;;;;5050152;28;20838;-76
2021/06/21 16:38:49;;;;;;;2.50;1.73;;;;;;;;;;5050169;28;20886;-72
2021/06/21 16:41:16;;;;;;;2.47;1.73;;;;;;;;;;5049948;28;20427;-75
2021/06/21 16:43:42;;;;;;;3.23;1.50;;;;;;;;;;5050602;28;20451;-77
2021/06/21 16:46:08;;;;;;;2.57;1.53;;;;;;;;;;5053892;28;20861;-75
2021/06/21 16:48:34;;;;;;;1.83;1.70;;;;;;;;;;5053193;28;20502;-75
2021/06/21 16:51:00;;;;;;;3.33;2.03;;;;;;;;;;5035580;28;20442;-75